This is the latest recevied weather packets stored in our database for station/object XE1GMR. If no packets are shown the sender has not sent any weather packets the latest 1 day(s).
| Time | Temp. | Humidity | Pressure | Rain* | Wind** | Luminosity | Snow |
|---|---|---|---|---|---|---|---|
| 1778012419 | 29.44° C | 38% | 1120.7 hPa | 0 mm | 2.24 m/s, 337° | 678 W/m² | - |
| 1778012116 | 30° C | 39% | 1120.7 hPa | 0 mm | 2.68 m/s, 249° | 672 W/m² | - |
| 1778011813 | 28.89° C | 39% | 1120.9 hPa | 0 mm | 0.89 m/s, 257° | 695 W/m² | - |
| 1778011511 | 29.44° C | 39% | 1120.8 hPa | 0 mm | 1.34 m/s, 292° | 697 W/m² | - |
| 1778011207 | 28.89° C | 39% | 1120.9 hPa | 0 mm | 1.79 m/s, 238° | 707 W/m² | - |
| 1778010903 | 29.44° C | 39% | 1120.9 hPa | 0 mm | 0.89 m/s, 253° | 714 W/m² | - |
| 1778010600 | 29.44° C | 39% | 1121.2 hPa | 0 mm | 0.89 m/s, 232° | 710 W/m² | - |
| 1778010298 | 29.44° C | 39% | 1121 hPa | 0 mm | 2.24 m/s, 231° | 688 W/m² | - |
| 1778010001 | 28.89° C | 41% | 1121.1 hPa | 0 mm | 0.89 m/s, 279° | 675 W/m² | - |
| 1778009695 | 29.44° C | 40% | 1121.5 hPa | 0 mm | 0.89 m/s, 220° | 699 W/m² | - |
| 1778009393 | 29.44° C | 40% | 1121.2 hPa | 0 mm | 1.79 m/s, 311° | 740 W/m² | - |
| 1778009091 | 30° C | 40% | 1121.3 hPa | 0 mm | 2.24 m/s, 173° | 727 W/m² | - |
| 1778008788 | 28.89° C | 40% | 1121.4 hPa | 0 mm | 1.79 m/s, 221° | 724 W/m² | - |
| 1778008487 | 28.33° C | 42% | 1121.6 hPa | 0 mm | 1.34 m/s, 236° | 714 W/m² | - |
| 1778008183 | 28.89° C | 41% | 1121.8 hPa | 0 mm | 3.13 m/s, 192° | 704 W/m² | - |
| 1778007878 | 28.89° C | 41% | 1121.8 hPa | 0 mm | 1.34 m/s, 314° | 730 W/m² | - |
| 1778007574 | 28.33° C | 42% | 1121.8 hPa | 0 mm | 0.45 m/s, 293° | 724 W/m² | - |
| 1778007272 | 28.33° C | 42% | 1122 hPa | 0 mm | 3.13 m/s, 165° | 700 W/m² | - |
| 1778006968 | 27.78° C | 43% | 1121.7 hPa | 0 mm | 2.68 m/s, 315° | 705 W/m² | - |
| 1778006665 | 28.33° C | 42% | 1122.1 hPa | 0 mm | 1.34 m/s, 249° | 733 W/m² | - |
| 1778006362 | 27.78° C | 43% | 1122 hPa | 0 mm | 0.89 m/s, 294° | 725 W/m² | - |
| 1778006059 | 27.78° C | 44% | 1122.1 hPa | 0 mm | 1.79 m/s, 241° | 734 W/m² | - |
| 1778005755 | 27.78° C | 45% | 1122.5 hPa | 0 mm | 1.79 m/s, 186° | 743 W/m² | - |
| 1778005452 | 27.78° C | 44% | 1122.2 hPa | 0 mm | 1.34 m/s, 238° | 763 W/m² | - |
| 1778005148 | 28.33° C | 44% | 1122.5 hPa | 0 mm | 1.34 m/s, 114° | 761 W/m² | - |
* Rain latest hour (hover to see other rain measurements)
** Current wind speed in m/s (hover to see current wind gust speed)